Time;durP1;ratioP1;P1;durP2;ratioP2;P2;SDS_P1;SDS_P2;PMS_P1;PMS_P2;Temp;Humidity;BMP_temperature;BMP_pressure;BME280_temperature;BME280_humidity;BME280_pressure;Samples;Min_cycle;Max_cycle;Signal;HPM_P1;HPM_P2
2022/09/01 00:00:27;;;;;;;1.00;0.52;;;19.90;93.20;;;;;;5014730;28;20180;-58
2022/09/01 00:02:56;;;;;;;1.05;0.30;;;19.90;93.30;;;;;;5014596;28;20180;-58
2022/09/01 00:05:22;;;;;;;0.52;0.40;;;19.90;93.10;;;;;;5014638;28;20540;-58
2022/09/01 00:07:49;;;;;;;0.70;0.40;;;19.90;93.10;;;;;;5014739;28;20181;-58
2022/09/01 00:10:15;;;;;;;1.80;0.38;;;19.70;93.00;;;;;;5014602;28;20192;-56
2022/09/01 00:12:42;;;;;;;0.47;0.47;;;19.70;93.00;;;;;;5014605;28;20234;-57
2022/09/01 00:15:10;;;;;;;0.60;0.60;;;19.80;93.20;;;;;;5014320;28;20728;-58
2022/09/01 00:17:36;;;;;;;0.55;0.45;;;19.80;93.00;;;;;;5014628;28;20176;-58
2022/09/01 00:20:02;;;;;;;0.35;0.35;;;19.60;92.90;;;;;;5014630;28;20738;-58
2022/09/01 00:22:28;;;;;;;0.50;0.47;;;19.70;92.90;;;;;;5014348;28;20626;-57
2022/09/01 00:24:54;;;;;;;0.47;0.47;;;19.60;93.00;;;;;;5014501;28;20189;-57
2022/09/01 00:27:20;;;;;;;0.40;0.40;;;19.50;93.00;;;;;;5014233;28;20184;-57
2022/09/01 00:29:45;;;;;;;0.40;0.40;;;19.50;92.90;;;;;;5014056;28;20684;-58
2022/09/01 00:32:11;;;;;;;0.40;0.38;;;19.50;93.10;;;;;;5014391;28;20562;-58
2022/09/01 00:34:37;;;;;;;0.50;0.45;;;19.50;93.10;;;;;;5014329;28;20181;-58
2022/09/01 00:37:03;;;;;;;0.50;0.50;;;19.50;93.20;;;;;;5014064;28;20180;-57
2022/09/01 00:39:28;;;;;;;0.40;0.40;;;19.40;93.30;;;;;;5014042;28;20211;-57
2022/09/01 00:41:54;;;;;;;0.38;0.30;;;19.40;93.40;;;;;;5014039;28;20291;-58
2022/09/01 00:44:26;;;;;;;0.52;0.30;;;19.40;93.50;;;;;;5013882;28;20223;-58
2022/09/01 00:46:54;;;;;;;0.43;0.43;;;19.30;93.70;;;;;;5013616;28;20201;-58
2022/09/01 00:49:32;;;;;;;0.50;0.43;;;19.30;93.70;;;;;;5014058;28;20176;-58
2022/09/01 00:52:08;;;;;;;0.52;0.50;;;19.20;93.70;;;;;;5014057;28;20175;-57
2022/09/01 00:54:38;;;;;;;0.57;0.40;;;19.20;93.70;;;;;;5013779;28;20307;-57
2022/09/01 00:57:07;;;;;;;0.40;0.40;;;19.10;93.90;;;;;;5013718;28;20536;-58
2022/09/01 00:59:34;;;;;;;0.45;0.40;;;19.10;93.70;;;;;;4996641;28;20512;-57
2022/09/01 01:02:00;;;;;;;0.38;0.38;;;19.10;93.80;;;;;;5013937;28;20177;-57
2022/09/01 01:04:26;;;;;;;0.60;0.43;;;19.00;93.60;;;;;;5013771;28;20203;-57
2022/09/01 01:07:00;;;;;;;0.75;0.47;;;19.00;93.90;;;;;;5012560;28;20302;-57
2022/09/01 01:09:31;;;;;;;0.68;0.60;;;19.00;93.90;;;;;;5013636;28;20176;-58
2022/09/01 01:11:59;;;;;;;0.63;0.60;;;19.00;93.90;;;;;;5013843;28;20523;-59
2022/09/01 01:14:27;;;;;;;1.15;0.55;;;19.00;93.60;;;;;;5012325;28;20233;-58
2022/09/01 01:16:54;;;;;;;0.50;0.40;;;18.90;93.90;;;;;;5013645;28;20208;-58
2022/09/01 01:23:04;;;;;;;0.50;0.50;;;18.90;93.90;;;;;;5013801;28;20190;-58
2022/09/01 01:25:43;;;;;;;0.30;0.30;;;18.90;93.80;;;;;;5013562;28;20204;-57
2022/09/01 01:28:12;;;;;;;0.50;0.50;;;18.80;93.70;;;;;;5013329;28;20280;-57
2022/09/01 01:30:41;;;;;;;0.40;0.40;;;18.80;94.00;;;;;;5013723;28;20626;-58
2022/09/01 01:33:07;;;;;;;0.50;0.50;;;18.90;93.70;;;;;;5013608;28;20172;-57
2022/09/01 01:35:33;;;;;;;0.52;0.40;;;18.90;93.60;;;;;;5013404;28;20200;-58
2022/09/01 01:38:00;;;;;;;0.88;0.50;;;18.90;93.80;;;;;;5013490;28;20176;-57
2022/09/01 01:40:28;;;;;;;1.60;0.60;;;18.80;93.70;;;;;;4996063;28;20176;-57
2022/09/01 01:42:56;;;;;;;1.15;0.60;;;18.90;93.60;;;;;;5013231;28;20165;-58
2022/09/01 01:45:23;;;;;;;0.60;0.60;;;18.80;93.70;;;;;;5013387;28;20176;-57
2022/09/01 01:47:55;;;;;;;0.47;0.47;;;18.90;93.50;;;;;;5013452;28;20199;-58
2022/09/01 01:50:34;;;;;;;0.60;0.60;;;18.90;93.50;;;;;;5012281;28;20282;-57
2022/09/01 01:53:05;;;;;;;0.50;0.50;;;18.80;93.80;;;;;;5013257;28;20533;-58
2022/09/01 01:55:31;;;;;;;0.70;0.50;;;18.80;93.70;;;;;;5012957;28;20677;-57
2022/09/01 01:57:58;;;;;;;0.57;0.40;;;18.80;93.60;;;;;;5015814;28;20235;-58
2022/09/01 02:00:33;;;;;;;0.70;0.60;;;18.70;93.80;;;;;;5017253;28;20180;-58
2022/09/01 02:02:59;;;;;;;0.60;0.50;;;18.70;93.70;;;;;;5017050;28;20684;-58
2022/09/01 02:05:31;;;;;;;0.50;0.50;;;18.70;93.70;;;;;;5016994;28;20172;-58
2022/09/01 02:08:05;;;;;;;0.40;0.40;;;18.70;93.60;;;;;;5017189;28;20169;-58
2022/09/01 02:10:34;;;;;;;0.55;0.55;;;18.70;93.50;;;;;;5017162;28;20180;-57
2022/09/01 02:13:05;;;;;;;0.45;0.43;;;18.60;93.60;;;;;;5017057;28;20638;-57
2022/09/01 02:15:37;;;;;;;0.45;0.43;;;18.60;93.80;;;;;;5016712;28;20203;-58
2022/09/01 02:18:04;;;;;;;0.43;0.43;;;18.70;93.70;;;;;;5015390;28;20179;-57
2022/09/01 02:20:31;;;;;;;0.30;0.30;;;18.50;93.50;;;;;;5016827;28;20707;-58
2022/09/01 02:22:57;;;;;;;0.88;0.60;;;18.40;93.70;;;;;;5015625;28;20173;-58
2022/09/01 02:25:23;;;;;;;0.60;0.60;;;18.40;93.60;;;;;;5017027;28;20195;-58
2022/09/01 02:27:54;;;;;;;0.55;0.50;;;18.40;93.70;;;;;;5016368;28;20184;-57
2022/09/01 02:30:21;;;;;;;0.50;0.50;;;18.40;93.50;;;;;;5016704;28;20258;-57
2022/09/01 02:32:47;;;;;;;0.52;0.50;;;18.50;93.70;;;;;;5015406;28;20205;-58
2022/09/01 02:35:13;;;;;;;1.20;0.70;;;18.50;93.70;;;;;;5016491;28;20367;-58
2022/09/01 02:37:40;;;;;;;1.17;0.60;;;18.40;93.70;;;;;;5016263;28;20185;-57
2022/09/01 02:40:09;;;;;;;0.50;0.50;;;18.40;93.70;;;;;;5016450;28;20200;-57
2022/09/01 02:42:39;;;;;;;0.80;0.60;;;18.30;94.00;;;;;;5015120;28;20235;-58
2022/09/01 02:45:14;;;;;;;0.30;0.30;;;18.30;93.80;;;;;;5016263;28;20189;-57
2022/09/01 02:47:47;;;;;;;0.63;0.50;;;18.30;93.90;;;;;;5016105;28;20176;-57
2022/09/01 02:50:15;;;;;;;0.50;0.50;;;18.30;94.00;;;;;;5016663;28;20279;-58
2022/09/01 02:52:42;;;;;;;1.33;0.70;;;18.20;93.90;;;;;;5016127;28;20172;-57
2022/09/01 02:55:08;;;;;;;1.15;0.90;;;18.10;94.00;;;;;;4998355;28;20216;-57
2022/09/01 02:57:34;;;;;;;1.15;0.70;;;18.10;94.10;;;;;;5015749;28;20256;-58
2022/09/01 03:00:00;;;;;;;0.52;0.52;;;18.10;94.20;;;;;;5015964;28;20315;-58
2022/09/01 03:02:27;;;;;;;0.50;0.50;;;18.10;94.20;;;;;;5016125;28;20263;-57
2022/09/01 03:04:54;;;;;;;1.00;0.52;;;18.10;94.10;;;;;;5015902;28;20185;-57
2022/09/01 03:07:24;;;;;;;0.40;0.40;;;18.10;94.20;;;;;;5016197;28;20225;-57
2022/09/01 03:09:51;;;;;;;0.80;0.65;;;18.10;94.40;;;;;;5015303;28;20188;-58
2022/09/01 03:12:18;;;;;;;0.70;0.60;;;18.10;94.20;;;;;;5015628;28;20276;-57
2022/09/01 03:14:44;;;;;;;0.40;0.40;;;17.90;94.10;;;;;;5015732;28;20185;-57
2022/09/01 03:17:10;;;;;;;1.05;0.60;;;17.90;94.20;;;;;;5015588;28;20192;-57
2022/09/01 03:19:41;;;;;;;0.70;0.70;;;17.90;94.10;;;;;;5015744;28;20177;-58
2022/09/01 03:22:07;;;;;;;0.93;0.70;;;17.80;94.30;;;;;;5015737;28;20291;-58
2022/09/01 03:24:32;;;;;;;0.70;0.60;;;17.80;94.30;;;;;;5015510;28;20709;-58
2022/09/01 03:26:58;;;;;;;0.70;0.60;;;17.90;94.50;;;;;;5014457;28;20585;-58
2022/09/01 03:29:24;;;;;;;0.60;0.60;;;17.70;94.40;;;;;;5015659;28;20646;-57
2022/09/01 03:31:50;;;;;;;0.70;0.70;;;17.70;94.60;;;;;;5015531;28;20180;-58
2022/09/01 03:34:19;;;;;;;0.70;0.70;;;17.60;94.50;;;;;;5015528;28;20172;-56
2022/09/01 03:36:48;;;;;;;1.08;0.73;;;17.50;94.50;;;;;;5015173;28;20776;-58
2022/09/01 03:39:18;;;;;;;0.65;0.65;;;17.60;94.60;;;;;;5015172;28;20227;-57
2022/09/01 03:41:44;;;;;;;0.93;0.80;;;17.50;94.50;;;;;;5015614;28;20260;-57
2022/09/01 03:44:12;;;;;;;0.98;0.80;;;17.50;94.60;;;;;;5015305;28;20255;-58
2022/09/01 03:46:39;;;;;;;1.60;1.05;;;17.50;94.70;;;;;;5015086;28;20188;-57
2022/09/01 03:49:11;;;;;;;0.88;0.65;;;17.50;94.70;;;;;;5015394;28;20181;-57
2022/09/01 03:51:37;;;;;;;0.80;0.80;;;17.40;94.80;;;;;;5015386;28;20185;-58
2022/09/01 03:54:03;;;;;;;2.67;0.90;;;17.50;94.80;;;;;;5014870;28;20173;-57
2022/09/01 03:56:29;;;;;;;0.95;0.82;;;17.50;94.70;;;;;;5015051;28;20220;-58
2022/09/01 03:58:57;;;;;;;1.17;0.80;;;17.40;94.70;;;;;;5014828;28;20550;-57
2022/09/01 04:01:28;;;;;;;0.63;0.57;;;17.40;94.80;;;;;;5014840;28;20583;-58
2022/09/01 04:03:54;;;;;;;0.85;0.63;;;17.40;94.80;;;;;;5015091;28;20173;-57
2022/09/01 04:06:22;;;;;;;0.43;0.43;;;17.30;95.00;;;;;;5014735;28;20207;-57
2022/09/01 04:08:49;;;;;;;1.02;0.80;;;17.20;95.20;;;;;;5014575;28;20185;-57
2022/09/01 04:11:19;;;;;;;0.80;0.80;;;17.30;95.30;;;;;;5014736;28;20725;-57
2022/09/01 04:13:46;;;;;;;0.63;0.63;;;17.30;95.30;;;;;;5014570;28;20653;-58
2022/09/01 04:19:18;;;;;;;2.38;0.73;;;17.20;95.30;;;;;;5014591;28;20195;-58
2022/09/01 04:21:52;;;;;;;1.65;1.00;;;17.20;95.20;;;;;;5013628;28;20642;-58
2022/09/01 04:24:19;;;;;;;1.80;0.90;;;17.20;95.40;;;;;;5014511;28;20256;-58
2022/09/01 04:26:48;;;;;;;1.20;1.05;;;17.10;95.70;;;;;;5014422;28;20652;-58
2022/09/01 04:29:17;;;;;;;0.98;0.80;;;17.10;95.40;;;;;;5014450;28;20245;-57
2022/09/01 04:31:43;;;;;;;1.13;1.00;;;17.20;95.50;;;;;;5014460;28;20251;-57
2022/09/01 04:34:12;;;;;;;1.05;0.85;;;17.20;95.60;;;;;;5013611;28;20758;-58
2022/09/01 04:36:40;;;;;;;0.73;0.73;;;17.10;95.50;;;;;;5014209;28;20211;-56
2022/09/01 04:39:11;;;;;;;1.27;0.80;;;17.00;95.70;;;;;;5014134;28;20198;-57
2022/09/01 04:41:45;;;;;;;1.00;0.90;;;17.10;95.70;;;;;;5014083;28;20275;-57
2022/09/01 04:44:12;;;;;;;0.93;0.85;;;17.10;95.90;;;;;;5014023;28;20189;-57
2022/09/01 04:46:45;;;;;;;1.17;0.82;;;17.00;96.00;;;;;;5014140;28;20559;-58
2022/09/01 04:49:14;;;;;;;1.30;1.10;;;17.00;95.90;;;;;;5014281;28;20184;-58
2022/09/01 04:51:42;;;;;;;0.70;0.70;;;16.90;96.20;;;;;;5013941;28;20173;-57
2022/09/01 04:54:12;;;;;;;1.65;0.90;;;16.90;96.00;;;;;;5013908;28;20259;-58
2022/09/01 04:56:40;;;;;;;1.17;1.00;;;16.80;95.90;;;;;;5013493;28;20258;-59
2022/09/01 04:59:08;;;;;;;1.08;0.90;;;16.80;96.10;;;;;;5012465;28;20704;-57
2022/09/01 05:01:45;;;;;;;1.25;0.90;;;16.80;96.10;;;;;;5013806;28;20649;-58
2022/09/01 05:04:21;;;;;;;1.40;1.10;;;16.80;96.30;;;;;;5013885;28;20181;-58
2022/09/01 05:06:59;;;;;;;0.90;0.90;;;16.80;96.20;;;;;;5013435;28;20175;-57
2022/09/01 05:09:29;;;;;;;1.02;0.85;;;16.70;96.20;;;;;;5011517;28;20195;-58
2022/09/01 05:11:56;;;;;;;1.98;1.17;;;16.60;96.30;;;;;;5012506;28;20173;-58
2022/09/01 05:14:23;;;;;;;1.55;1.25;;;16.60;96.50;;;;;;5013519;28;20523;-58
2022/09/01 05:16:50;;;;;;;0.95;0.93;;;16.50;96.50;;;;;;5013508;28;20259;-58
2022/09/01 05:19:19;;;;;;;1.38;0.98;;;16.50;96.70;;;;;;5013475;28;20168;-57
2022/09/01 05:21:46;;;;;;;1.52;1.23;;;16.40;97.10;;;;;;5013715;28;20263;-59
2022/09/01 05:24:17;;;;;;;2.22;1.20;;;16.50;96.90;;;;;;5012797;28;20173;-58
2022/09/01 05:26:46;;;;;;;1.30;1.20;;;16.60;97.00;;;;;;5013537;28;20176;-58
2022/09/01 05:29:16;;;;;;;1.55;1.38;;;16.60;96.70;;;;;;5013235;28;20197;-58
2022/09/01 05:31:45;;;;;;;1.35;1.10;;;16.50;96.80;;;;;;5013975;28;20271;-57
2022/09/01 05:34:12;;;;;;;1.60;1.05;;;16.50;96.90;;;;;;5017415;28;20638;-57
2022/09/01 05:36:43;;;;;;;1.52;1.17;;;16.50;97.20;;;;;;5016071;28;20204;-58
2022/09/01 05:39:13;;;;;;;1.33;1.00;;;16.60;96.80;;;;;;5017383;28;20169;-57
2022/09/01 05:41:39;;;;;;;1.38;1.08;;;16.70;96.80;;;;;;5000432;28;20649;-58
2022/09/01 05:44:07;;;;;;;1.35;1.20;;;16.70;96.80;;;;;;5017455;28;20181;-58
2022/09/01 05:46:34;;;;;;;1.23;1.10;;;16.60;96.90;;;;;;5017235;28;20184;-58
2022/09/01 05:49:01;;;;;;;1.10;1.00;;;16.70;96.90;;;;;;5017425;28;20259;-59
2022/09/01 05:51:33;;;;;;;1.35;1.15;;;16.60;96.90;;;;;;5017352;28;20207;-59
2022/09/01 05:53:59;;;;;;;0.98;0.90;;;16.70;97.00;;;;;;5017288;28;20500;-59
2022/09/01 05:56:29;;;;;;;1.50;1.40;;;16.80;96.70;;;;;;5017068;28;20262;-58
2022/09/01 05:58:56;;;;;;;1.35;1.00;;;16.70;96.80;;;;;;5016930;28;20231;-58
2022/09/01 06:01:27;;;;;;;1.65;1.20;;;16.80;96.90;;;;;;5017011;28;20188;-59
2022/09/01 06:03:55;;;;;;;2.55;1.40;;;16.90;96.70;;;;;;5017080;28;20239;-59
2022/09/01 06:06:26;;;;;;;2.17;1.42;;;17.00;96.70;;;;;;5017180;28;20227;-60
2022/09/01 06:08:57;;;;;;;1.80;1.23;;;17.20;96.20;;;;;;5016931;28;20187;-58
2022/09/01 06:11:25;;;;;;;2.03;1.52;;;17.50;96.30;;;;;;5016799;28;20175;-57
2022/09/01 06:13:54;;;;;;;4.53;1.33;;;17.60;96.20;;;;;;5016657;28;20227;-58
2022/09/01 06:16:23;;;;;;;2.15;1.20;;;17.60;96.30;;;;;;5016787;28;20239;-58
2022/09/01 06:18:52;;;;;;;2.97;1.60;;;17.80;95.90;;;;;;5016704;28;20173;-57
2022/09/01 06:21:19;;;;;;;2.38;1.50;;;17.90;95.60;;;;;;5016620;28;20191;-57
2022/09/01 06:23:44;;;;;;;2.72;1.70;;;18.00;95.40;;;;;;5015381;28;20231;-57
2022/09/01 06:26:22;;;;;;;2.17;1.40;;;17.90;95.80;;;;;;4998827;28;20619;-58
2022/09/01 06:28:53;;;;;;;2.30;1.48;;;18.20;95.60;;;;;;5016593;28;20649;-58
2022/09/01 06:31:22;;;;;;;2.90;1.60;;;18.20;95.40;;;;;;5015452;28;20173;-57
2022/09/01 06:33:50;;;;;;;2.33;1.58;;;18.20;95.40;;;;;;5016391;28;20629;-58
2022/09/01 06:36:17;;;;;;;1.80;1.40;;;18.40;95.40;;;;;;5015247;28;20204;-58
2022/09/01 06:38:43;;;;;;;1.45;1.33;;;18.40;95.20;;;;;;5016254;28;20661;-58
2022/09/01 06:41:11;;;;;;;1.88;1.48;;;18.60;95.50;;;;;;4999000;28;20185;-58
2022/09/01 06:43:40;;;;;;;2.83;1.45;;;18.70;94.90;;;;;;5015341;28;20193;-58
2022/09/01 06:46:08;;;;;;;1.85;1.52;;;18.50;95.40;;;;;;5015100;28;20534;-57
2022/09/01 06:48:35;;;;;;;1.83;1.35;;;18.60;95.60;;;;;;5014967;28;20212;-58
2022/09/01 06:51:02;;;;;;;2.30;1.60;;;18.50;95.30;;;;;;5016068;28;20648;-58
2022/09/01 06:53:30;;;;;;;1.83;1.60;;;18.80;95.50;;;;;;5016376;28;20173;-58
2022/09/01 06:55:57;;;;;;;2.47;1.67;;;18.80;95.10;;;;;;5014921;28;20208;-58
2022/09/01 06:58:24;;;;;;;2.40;1.50;;;18.90;95.20;;;;;;5016270;28;20268;-58
2022/09/01 07:00:50;;;;;;;2.03;1.50;;;18.90;95.40;;;;;;5015960;28;20180;-58
2022/09/01 07:03:16;;;;;;;2.17;1.80;;;19.00;95.30;;;;;;5015864;28;20173;-58
2022/09/01 07:05:46;;;;;;;2.35;1.50;;;19.00;95.20;;;;;;5015757;28;20184;-58
2022/09/01 07:08:18;;;;;;;1.52;1.42;;;19.10;95.40;;;;;;5015921;28;20165;-58
2022/09/01 07:10:48;;;;;;;1.77;1.30;;;19.00;95.30;;;;;;5015835;28;20184;-58
2022/09/01 07:13:18;;;;;;;1.77;1.48;;;19.00;95.30;;;;;;5015759;28;20179;-58
2022/09/01 07:15:48;;;;;;;2.15;1.58;;;19.10;95.30;;;;;;5015626;28;20216;-57
2022/09/01 07:18:16;;;;;;;1.90;1.50;;;19.20;95.20;;;;;;5015442;28;20180;-57
2022/09/01 07:20:43;;;;;;;3.28;2.35;;;19.40;95.10;;;;;;5015823;28;20188;-58
2022/09/01 07:23:10;;;;;;;2.55;1.88;;;19.40;94.60;;;;;;5015682;28;20259;-58
2022/09/01 07:25:40;;;;;;;2.53;1.90;;;19.30;94.90;;;;;;5015471;28;20793;-58
2022/09/01 07:28:07;;;;;;;2.08;1.88;;;19.40;95.00;;;;;;5015222;28;20208;-58
2022/09/01 07:30:39;;;;;;;2.60;1.90;;;19.60;94.90;;;;;;5015296;28;20184;-58
2022/09/01 07:33:10;;;;;;;2.63;2.10;;;19.70;94.80;;;;;;5015755;28;20183;-58
2022/09/01 07:35:38;;;;;;;2.60;2.15;;;19.90;95.00;;;;;;5015218;28;20629;-58
2022/09/01 07:38:08;;;;;;;2.38;2.00;;;20.00;94.80;;;;;;5015356;28;20200;-58
2022/09/01 07:40:37;;;;;;;3.60;2.17;;;20.00;94.60;;;;;;5014086;28;20173;-57
2022/09/01 07:43:07;;;;;;;1.88;1.73;;;20.20;94.50;;;;;;5014996;28;20165;-58
2022/09/01 07:45:35;;;;;;;3.15;2.20;;;20.10;94.40;;;;;;5015199;28;20184;-58
2022/09/01 07:48:05;;;;;;;3.25;2.20;;;20.10;94.70;;;;;;5013939;28;20187;-58
2022/09/01 07:50:32;;;;;;;3.15;2.00;;;20.40;94.20;;;;;;5015093;28;20169;-59
2022/09/01 07:52:59;;;;;;;3.38;1.75;;;20.40;94.50;;;;;;5013999;28;20168;-59
2022/09/01 07:55:26;;;;;;;2.13;1.77;;;20.80;94.40;;;;;;5013510;28;20574;-58
2022/09/01 07:57:53;;;;;;;2.70;1.80;;;20.70;94.00;;;;;;5014708;28;20231;-58
2022/09/01 08:00:20;;;;;;;2.10;1.67;;;20.80;94.00;;;;;;5014938;28;20184;-58
2022/09/01 08:02:46;;;;;;;3.03;1.63;;;20.80;93.70;;;;;;5014877;28;20176;-57
2022/09/01 08:05:17;;;;;;;2.70;2.00;;;20.70;93.60;;;;;;5014850;28;20523;-59
2022/09/01 08:07:46;;;;;;;2.20;2.00;;;20.70;94.00;;;;;;5014669;28;20180;-58
2022/09/01 08:10:11;;;;;;;2.63;1.77;;;20.80;94.30;;;;;;5014594;28;20176;-58
2022/09/01 08:12:37;;;;;;;2.65;1.80;;;21.10;93.90;;;;;;5013648;28;20296;-58
2022/09/01 08:15:05;;;;;;;2.28;1.80;;;21.50;94.00;;;;;;5014791;28;20634;-58
2022/09/01 08:17:31;;;;;;;3.17;2.40;;;21.60;93.30;;;;;;5013428;28;20204;-59
2022/09/01 08:19:57;;;;;;;2.03;1.67;;;21.80;93.10;;;;;;5013348;28;20180;-58
2022/09/01 08:22:24;;;;;;;2.60;2.00;;;22.00;92.90;;;;;;5014491;28;20179;-57
2022/09/01 08:24:51;;;;;;;2.60;2.15;;;21.90;92.80;;;;;;5014349;28;20173;-58
2022/09/01 08:27:17;;;;;;;3.45;2.20;;;22.10;93.10;;;;;;5014446;28;20169;-58
2022/09/01 08:29:43;;;;;;;1.67;1.58;;;22.20;92.90;;;;;;5014492;28;20192;-58
2022/09/01 08:32:10;;;;;;;2.90;1.95;;;22.20;92.90;;;;;;4996734;28;20177;-58
2022/09/01 08:34:36;;;;;;;2.60;1.70;;;22.20;92.80;;;;;;5014261;28;20169;-59
2022/09/01 08:37:03;;;;;;;2.30;2.00;;;22.40;92.70;;;;;;5014099;28;20299;-58
2022/09/01 08:39:29;;;;;;;2.05;1.58;;;22.50;92.70;;;;;;4996513;28;20181;-58
2022/09/01 08:42:04;;;;;;;2.55;1.95;;;22.60;92.80;;;;;;5014271;28;20634;-58
2022/09/01 08:44:54;;;;;;;2.92;1.80;;;22.70;92.30;;;;;;5014087;28;20167;-58
2022/09/01 08:47:20;;;;;;;2.20;1.98;;;22.80;92.50;;;;;;5014249;28;20183;-58
2022/09/01 08:49:49;;;;;;;4.55;1.90;;;22.70;92.20;;;;;;5012613;28;20173;-58
2022/09/01 08:52:33;;;;;;;2.45;1.52;;;22.70;92.30;;;;;;5012675;28;20640;-58
2022/09/01 08:55:24;;;;;;;2.20;1.50;;;22.90;92.50;;;;;;5013872;28;20200;-58
2022/09/01 08:57:54;;;;;;;2.03;1.83;;;22.90;92.00;;;;;;5013851;28;20188;-58
2022/09/01 09:00:26;;;;;;;2.42;1.80;;;23.00;92.30;;;;;;5013692;28;20177;-58
2022/09/01 09:03:04;;;;;;;2.45;1.75;;;22.90;92.10;;;;;;5013996;28;20176;-58
2022/09/01 09:06:10;;;;;;;2.72;1.65;;;23.20;92.10;;;;;;5013824;28;20188;-59
2022/09/01 09:08:57;;;;;;;2.40;1.73;;;23.50;91.80;;;;;;5012263;28;20179;-58
2022/09/01 09:11:50;;;;;;;1.75;1.58;;;23.40;91.60;;;;;;5013941;28;20183;-58
2022/09/01 09:14:27;;;;;;;1.40;1.30;;;23.40;91.40;;;;;;5013728;28;20562;-58
2022/09/01 09:16:55;;;;;;;2.67;1.65;;;23.70;91.40;;;;;;5013509;28;20566;-58
2022/09/01 09:19:39;;;;;;;2.10;1.70;;;23.50;91.50;;;;;;5012702;28;20176;-59
2022/09/01 09:22:09;;;;;;;1.85;1.60;;;23.50;91.50;;;;;;5013721;28;20237;-58
2022/09/01 09:25:01;;;;;;;1.77;1.48;;;23.40;91.50;;;;;;5013618;28;20164;-58
2022/09/01 09:27:32;;;;;;;1.85;1.48;;;23.80;91.90;;;;;;5013291;28;20195;-58
2022/09/01 09:30:03;;;;;;;2.70;1.60;;;23.90;91.50;;;;;;5013774;28;20511;-58
2022/09/01 09:32:44;;;;;;;2.17;1.48;;;23.90;91.00;;;;;;5013492;28;20177;-58
2022/09/01 09:35:32;;;;;;;3.53;1.70;;;23.90;91.30;;;;;;5011974;28;20204;-58
2022/09/01 09:38:21;;;;;;;3.38;1.88;;;23.90;91.10;;;;;;5013249;28;20215;-58
2022/09/01 09:41:12;;;;;;;2.38;1.75;;;24.30;91.40;;;;;;5013512;28;20272;-59
2022/09/01 09:43:45;;;;;;;3.22;2.00;;;24.50;91.00;;;;;;5013403;28;20227;-59
2022/09/01 09:46:22;;;;;;;1.88;1.38;;;24.50;91.00;;;;;;5013271;28;20184;-58
2022/09/01 09:49:04;;;;;;;2.97;1.80;;;24.60;91.00;;;;;;5013333;28;20172;-58
2022/09/01 09:51:30;;;;;;;2.83;2.00;;;24.80;90.80;;;;;;5013275;28;20660;-58
2022/09/01 09:54:20;;;;;;;2.70;1.60;;;25.00;90.40;;;;;;5013323;28;20173;-58
2022/09/01 09:56:48;;;;;;;1.50;1.20;;;25.20;90.40;;;;;;5013567;28;20192;-59
2022/09/01 09:59:31;;;;;;;1.38;1.20;;;25.20;90.20;;;;;;5013335;28;20530;-58
2022/09/01 10:01:59;;;;;;;1.50;1.30;;;25.40;90.10;;;;;;5013177;28;20168;-59
2022/09/01 10:04:37;;;;;;;1.88;1.38;;;25.50;90.00;;;;;;5013163;28;20258;-58
2022/09/01 10:07:24;;;;;;;2.25;1.50;;;25.50;89.70;;;;;;4995588;28;20176;-58
2022/09/01 10:09:51;;;;;;;2.55;1.33;;;25.40;89.80;;;;;;5013220;28;20664;-59
2022/09/01 10:12:18;;;;;;;1.75;1.15;;;25.50;89.50;;;;;;5013122;28;20199;-59
2022/09/01 10:15:04;;;;;;;1.20;1.10;;;25.40;90.00;;;;;;5012990;28;20177;-58
2022/09/01 10:17:41;;;;;;;0.85;0.73;;;25.00;89.10;;;;;;5013180;28;20172;-58
2022/09/01 10:20:17;;;;;;;1.45;1.10;;;25.00;89.20;;;;;;5016847;28;20183;-58
2022/09/01 10:22:43;;;;;;;0.95;0.80;;;25.00;89.50;;;;;;5016805;28;20172;-58
2022/09/01 10:25:15;;;;;;;1.20;1.10;;;24.70;88.70;;;;;;4999237;28;20185;-58
2022/09/01 10:27:45;;;;;;;1.10;0.80;;;24.90;88.80;;;;;;5016419;28;20200;-59
2022/09/01 10:30:15;;;;;;;1.08;0.98;;;24.90;89.00;;;;;;5015569;28;20183;-56
2022/09/01 10:32:48;;;;;;;0.88;0.88;;;25.20;89.40;;;;;;5016585;28;20200;-58
2022/09/01 10:35:22;;;;;;;0.80;0.80;;;25.20;88.60;;;;;;5016348;28;20200;-58
2022/09/01 10:37:50;;;;;;;0.80;0.80;;;25.30;88.00;;;;;;5015255;28;20169;-59
2022/09/01 10:40:22;;;;;;;0.73;0.70;;;25.40;87.40;;;;;;5016263;28;20188;-58
2022/09/01 10:42:53;;;;;;;1.15;1.05;;;25.50;87.50;;;;;;5016563;28;20203;-59
2022/09/01 10:45:29;;;;;;;0.60;0.60;;;25.80;87.70;;;;;;5016390;28;20181;-58
2022/09/01 10:47:56;;;;;;;0.50;0.50;;;25.60;85.40;;;;;;5016296;28;20184;-58
2022/09/01 10:50:26;;;;;;;0.80;0.80;;;25.40;85.90;;;;;;5016194;28;20181;-58
2022/09/01 10:52:54;;;;;;;1.08;0.70;;;25.50;85.80;;;;;;5016125;28;20568;-58
2022/09/01 10:55:31;;;;;;;1.52;0.68;;;25.50;85.00;;;;;;5015938;28;20658;-58
2022/09/01 10:58:41;;;;;;;0.70;0.70;;;25.40;85.70;;;;;;5016161;28;20173;-59
2022/09/01 11:01:06;;;;;;;0.80;0.80;;;25.60;85.40;;;;;;4958546;28;20588;-58
2022/09/01 11:03:55;;;;;;;0.60;0.40;;;25.70;83.20;;;;;;4958784;28;20208;-59
2022/09/01 11:06:42;;;;;;;0.77;0.77;;;25.90;84.60;;;;;;5001722;28;20197;-59
2022/09/01 11:09:31;;;;;;;0.98;0.70;;;26.10;83.60;;;;;;5015937;28;20649;-58
2022/09/01 11:12:45;;;;;;;0.68;0.60;;;25.90;84.20;;;;;;5015956;28;20172;-58
2022/09/01 11:15:13;;;;;;;0.52;0.50;;;26.50;83.10;;;;;;5015744;28;20204;-58
2022/09/01 11:17:55;;;;;;;0.73;0.70;;;26.40;82.40;;;;;;5015897;28;20204;-58
2022/09/01 11:20:37;;;;;;;0.85;0.60;;;26.30;82.00;;;;;;5015850;28;20495;-59
2022/09/01 11:23:04;;;;;;;0.70;0.70;;;26.00;82.90;;;;;;5015680;28;20160;-58
2022/09/01 11:25:47;;;;;;;0.70;0.60;;;26.00;82.90;;;;;;5015577;28;20188;-59
2022/09/01 11:28:15;;;;;;;1.13;0.77;;;26.30;82.70;;;;;;5015407;28;20662;-58
2022/09/01 11:30:57;;;;;;;0.80;0.70;;;26.20;82.10;;;;;;5014749;28;20184;-59
2022/09/01 11:33:49;;;;;;;0.60;0.60;;;26.10;81.40;;;;;;5015553;28;20252;-59
2022/09/01 11:36:34;;;;;;;0.75;0.73;;;26.10;81.00;;;;;;5015304;28;20259;-58
2022/09/01 11:39:05;;;;;;;1.55;0.50;;;26.30;80.80;;;;;;5015418;28;20192;-59
2022/09/01 11:41:46;;;;;;;0.77;0.68;;;26.40;81.40;;;;;;5015242;28;20176;-59
2022/09/01 11:44:26;;;;;;;0.52;0.52;;;26.40;80.60;;;;;;5015246;28;20202;-58
2022/09/01 11:47:02;;;;;;;1.58;0.60;;;26.60;80.40;;;;;;5015032;28;20626;-59
2022/09/01 11:49:45;;;;;;;0.52;0.52;;;26.50;80.80;;;;;;5015308;28;20235;-58
2022/09/01 11:52:15;;;;;;;0.95;0.65;;;26.50;79.40;;;;;;5015226;28;20254;-58
2022/09/01 11:54:45;;;;;;;0.70;0.70;;;26.40;80.10;;;;;;5014935;28;20184;-59
2022/09/01 11:57:33;;;;;;;0.60;0.60;;;25.90;79.70;;;;;;5014917;28;20180;-58
2022/09/01 12:00:05;;;;;;;0.70;0.70;;;26.00;79.90;;;;;;5015017;28;20180;-58
2022/09/01 12:02:34;;;;;;;0.60;0.60;;;26.40;80.70;;;;;;5015029;28;20176;-58
2022/09/01 12:05:03;;;;;;;0.70;0.60;;;26.70;79.80;;;;;;5013655;28;20216;-57
2022/09/01 12:07:43;;;;;;;0.60;0.60;;;26.40;78.30;;;;;;5014684;28;20181;-58
2022/09/01 12:10:25;;;;;;;0.57;0.57;;;26.70;79.80;;;;;;5014951;28;20175;-58
2022/09/01 12:13:08;;;;;;;0.52;0.52;;;26.50;79.10;;;;;;5014781;28;20172;-58
2022/09/01 12:15:40;;;;;;;0.80;0.70;;;26.50;78.90;;;;;;5014601;28;20299;-59
2022/09/01 12:18:14;;;;;;;0.70;0.70;;;26.50;79.90;;;;;;5014519;28;20219;-58
2022/09/01 12:20:40;;;;;;;0.80;0.70;;;26.20;79.20;;;;;;5014742;28;20176;-58
2022/09/01 12:23:24;;;;;;;0.85;0.70;;;26.10;79.80;;;;;;5013388;28;20169;-58
2022/09/01 12:25:50;;;;;;;1.17;0.70;;;26.10;79.30;;;;;;5014431;28;20176;-58
2022/09/01 12:28:16;;;;;;;0.60;0.57;;;26.20;79.60;;;;;;5012742;28;20184;-59
2022/09/01 12:30:43;;;;;;;3.33;0.70;;;26.20;79.50;;;;;;5014244;28;20183;-58
2022/09/01 12:33:12;;;;;;;0.52;0.52;;;26.30;80.20;;;;;;5014511;28;20176;-58
2022/09/01 12:35:38;;;;;;;1.38;0.75;;;26.30;78.90;;;;;;5014282;28;20201;-58
2022/09/01 12:38:19;;;;;;;0.60;0.60;;;26.50;79.20;;;;;;5012944;28;20180;-59
2022/09/01 12:40:50;;;;;;;0.77;0.65;;;26.50;79.50;;;;;;5013882;28;20526;-59
2022/09/01 12:43:31;;;;;;;0.63;0.52;;;26.50;78.60;;;;;;5013610;28;20232;-59
2022/09/01 12:45:59;;;;;;;0.50;0.50;;;27.00;78.80;;;;;;5014136;28;20180;-60
2022/09/01 12:48:30;;;;;;;0.90;0.90;;;26.90;77.70;;;;;;5012932;28;20179;-59
2022/09/01 12:51:02;;;;;;;0.93;0.70;;;27.10;78.30;;;;;;5014147;28;20223;-58
2022/09/01 12:53:31;;;;;;;0.70;0.70;;;26.90;76.70;;;;;;5013902;28;20204;-58
2022/09/01 12:56:04;;;;;;;0.60;0.60;;;26.40;78.10;;;;;;5013929;28;20274;-58
2022/09/01 12:58:30;;;;;;;0.60;0.60;;;26.20;78.60;;;;;;5014052;28;20173;-59
2022/09/01 13:01:15;;;;;;;0.80;0.68;;;26.10;79.00;;;;;;5012638;28;20631;-59
2022/09/01 13:03:41;;;;;;;0.90;0.73;;;26.30;79.50;;;;;;5013833;28;20637;-58
2022/09/01 13:06:07;;;;;;;0.70;0.70;;;26.30;78.60;;;;;;5012204;28;20234;-58
2022/09/01 13:08:34;;;;;;;1.15;0.88;;;26.30;78.10;;;;;;5013861;28;20207;-58
2022/09/01 13:11:08;;;;;;;1.40;0.95;;;26.50;77.80;;;;;;5013722;28;20536;-55
2022/09/01 13:13:34;;;;;;;0.70;0.70;;;26.50;77.50;;;;;;5014029;28;20168;-58